createdAt,value
2023-03-26T00:03:12.184Z,7.58
2023-03-26T00:08:16.602Z,7.59
2023-03-26T00:13:23.516Z,7.57
2023-03-26T00:18:30.332Z,7.52
2023-03-26T00:23:35.252Z,7.48
2023-03-26T00:28:38.468Z,7.44
2023-03-26T00:33:42.689Z,7.44
2023-03-26T00:38:47.186Z,7.43
2023-03-26T00:44:09.357Z,7.42
2023-03-26T00:49:14.840Z,7.41
2023-03-26T00:54:36.700Z,7.37
2023-03-26T00:59:39.463Z,7.31
2023-03-26T01:04:45.250Z,7.21
2023-03-26T01:09:50.493Z,7.06
2023-03-26T01:14:56.660Z,6.93
2023-03-26T01:20:26.817Z,6.83
2023-03-26T01:25:34.462Z,6.73
2023-03-26T01:30:42.693Z,6.64
2023-03-26T01:36:18.125Z,6.52
2023-03-26T01:41:45.138Z,6.42
2023-03-26T01:46:48.723Z,6.42
2023-03-26T01:51:51.348Z,6.47
2023-03-26T01:57:17.597Z,6.55
2023-03-26T02:02:42.859Z,6.65
2023-03-26T02:07:52.138Z,6.76
2023-03-26T02:12:54.799Z,6.87
2023-03-26T02:17:56.583Z,6.94
2023-03-26T02:22:59.956Z,6.97
2023-03-26T02:28:02.813Z,6.93
2023-03-26T02:33:04.880Z,6.81
2023-03-26T02:38:14.583Z,6.68
2023-03-26T02:43:17.072Z,6.58
2023-03-26T02:48:20.405Z,6.52
2023-03-26T02:53:30.915Z,6.52
2023-03-26T02:59:02.097Z,6.53
2023-03-26T03:04:04.531Z,6.53
2023-03-26T03:09:12.846Z,6.52
2023-03-26T03:14:35.020Z,6.52
2023-03-26T03:19:37.821Z,6.54
2023-03-26T03:24:39.990Z,6.51
2023-03-26T03:29:41.735Z,6.47
2023-03-26T03:35:18.979Z,6.46
2023-03-26T03:40:23.957Z,6.48
2023-03-26T03:45:26.936Z,6.53
2023-03-26T03:50:47.431Z,6.53
2023-03-26T03:56:02.000Z,6.50
2023-03-26T04:06:18.776Z,6.44
2023-03-26T04:11:23.947Z,6.40
2023-03-26T04:16:42.617Z,6.41
2023-03-26T04:21:44.644Z,6.43
2023-03-26T04:26:48.190Z,6.41
2023-03-26T04:31:58.670Z,6.36
2023-03-26T04:37:02.607Z,6.29
2023-03-26T04:42:12.044Z,6.25
2023-03-26T04:47:24.273Z,6.29
2023-03-26T04:52:26.379Z,6.35
2023-03-26T04:57:53.118Z,6.38
2023-03-26T05:03:15.791Z,6.41
2023-03-26T05:08:18.647Z,6.45
2023-03-26T05:13:20.862Z,6.45
2023-03-26T05:18:24.842Z,6.46
2023-03-26T05:23:27.964Z,6.53
2023-03-26T05:28:40.594Z,6.62
2023-03-26T05:34:11.575Z,6.73
2023-03-26T05:39:14.296Z,6.86
2023-03-26T05:50:07.650Z,7.22
2023-03-26T05:55:11.340Z,7.40
2023-03-26T06:00:43.348Z,7.52
2023-03-26T06:05:46.792Z,7.66
2023-03-26T06:11:04.588Z,7.90
2023-03-26T06:16:27.319Z,8.22
2023-03-26T06:21:50.498Z,8.40
2023-03-26T06:26:56.601Z,8.62
2023-03-26T06:32:06.407Z,8.59
2023-03-26T06:37:22.848Z,8.51
2023-03-26T06:43:06.689Z,8.48
2023-03-26T06:48:17.475Z,8.58
2023-03-26T06:53:30.962Z,8.66
2023-03-26T06:58:45.908Z,8.68
2023-03-26T07:04:06.190Z,8.68
2023-03-26T07:09:30.345Z,8.64
2023-03-26T07:14:55.941Z,8.72
2023-03-26T07:20:16.922Z,8.94
2023-03-26T07:25:20.503Z,9.15
2023-03-26T07:30:55.446Z,9.41
2023-03-26T07:36:29.585Z,9.76
2023-03-26T07:42:23.451Z,10.09
2023-03-26T07:47:45.238Z,10.31
2023-03-26T07:52:53.943Z,10.71
2023-03-26T07:59:03.597Z,11.00
2023-03-26T08:04:50.995Z,11.12
2023-03-26T08:11:07.536Z,11.19
2023-03-26T08:16:45.662Z,11.18
2023-03-26T08:22:02.176Z,11.24
2023-03-26T08:27:21.852Z,11.48
2023-03-26T08:32:25.436Z,11.91
2023-03-26T08:37:27.840Z,12.04
2023-03-26T08:42:45.333Z,11.82
2023-03-26T08:48:03.354Z,11.56
2023-03-26T08:53:17.657Z,11.46
2023-03-26T08:58:36.436Z,11.38
2023-03-26T09:04:03.091Z,11.48
2023-03-26T09:09:33.073Z,11.68
2023-03-26T09:14:53.164Z,11.95
2023-03-26T09:20:25.227Z,11.95
2023-03-26T09:25:51.729Z,11.54
2023-03-26T09:31:11.943Z,11.10
2023-03-26T09:36:32.122Z,10.49
2023-03-26T09:41:53.705Z,9.96
2023-03-26T09:47:07.454Z,9.72
2023-03-26T09:52:35.642Z,9.70
2023-03-26T09:57:59.305Z,10.18
2023-03-26T10:03:58.926Z,10.84
2023-03-26T10:09:29.785Z,11.81
2023-03-26T10:15:16.687Z,12.46
2023-03-26T10:20:43.113Z,12.95
2023-03-26T10:26:09.607Z,13.13
2023-03-26T10:31:47.354Z,12.63
2023-03-26T10:37:04.089Z,11.99
2023-03-26T10:42:38.574Z,11.31
2023-03-26T10:48:11.358Z,11.33
2023-03-26T10:53:33.517Z,11.95
2023-03-26T10:58:49.306Z,12.39
2023-03-26T11:04:14.231Z,13.04
2023-03-26T11:09:46.740Z,13.12
2023-03-26T11:15:03.858Z,13.33
2023-03-26T11:20:17.466Z,13.42
2023-03-26T11:25:51.402Z,13.26
2023-03-26T11:31:13.028Z,13.53
2023-03-26T11:36:22.822Z,13.39
2023-03-26T11:41:27.565Z,13.47
2023-03-26T11:46:40.005Z,13.62
2023-03-26T11:51:43.883Z,14.24
2023-03-26T11:57:05.410Z,14.87
2023-03-26T12:02:11.534Z,14.38
2023-03-26T12:07:17.443Z,13.98
2023-03-26T12:12:20.374Z,13.81
2023-03-26T12:17:34.741Z,13.60
2023-03-26T12:22:38.699Z,13.58
2023-03-26T12:27:50.541Z,13.69
2023-03-26T12:32:57.797Z,13.71
2023-03-26T12:38:14.818Z,13.87
2023-03-26T12:44:54.770Z,13.99
2023-03-26T12:48:53.816Z,14.28
2023-03-26T12:54:23.815Z,14.57
2023-03-26T13:00:09.397Z,14.89
2023-03-26T13:05:17.897Z,15.39
2023-03-26T13:10:50.809Z,15.77
2023-03-26T13:15:57.795Z,16.07
2023-03-26T13:21:11.312Z,16.35
2023-03-26T13:27:00.306Z,16.40
2023-03-26T13:32:24.105Z,15.97
2023-03-26T13:37:36.446Z,15.62
2023-03-26T13:43:04.636Z,15.14
2023-03-26T13:48:18.167Z,14.76
2023-03-26T13:53:27.495Z,14.76
2023-03-26T13:58:41.823Z,14.71
2023-03-26T14:04:00.264Z,14.77
2023-03-26T14:09:12.711Z,14.83
2023-03-26T14:14:23.545Z,14.77
2023-03-26T14:20:02.400Z,14.72
2023-03-26T14:25:39.218Z,14.74
2023-03-26T14:30:56.558Z,14.58
2023-03-26T14:36:14.979Z,14.32
2023-03-26T14:41:33.139Z,14.21
2023-03-26T14:46:40.970Z,14.33
2023-03-26T14:52:05.856Z,14.38
2023-03-26T14:57:33.180Z,14.50
2023-03-26T15:03:09.933Z,14.55
2023-03-26T15:08:40.629Z,14.51
2023-03-26T15:14:16.589Z,14.41
2023-03-26T15:19:41.786Z,14.25
2023-03-26T15:25:12.735Z,14.04
2023-03-26T15:30:30.611Z,13.81
2023-03-26T15:36:00.505Z,13.56
2023-03-26T15:41:05.475Z,13.37
2023-03-26T15:46:26.348Z,13.68
2023-03-26T15:51:59.005Z,14.18
2023-03-26T15:57:16.725Z,14.07
2023-03-26T16:03:16.345Z,13.88
2023-03-26T16:08:25.935Z,13.49
2023-03-26T16:13:30.802Z,13.15
2023-03-26T16:18:37.283Z,12.93
2023-03-26T16:23:47.566Z,12.76
2023-03-26T16:28:53.627Z,12.58
2023-03-26T16:34:09.287Z,12.47
2023-03-26T16:39:18.784Z,12.34
2023-03-26T16:44:37.956Z,12.14
2023-03-26T16:50:08.888Z,11.89
2023-03-26T16:55:39.371Z,11.65
2023-03-26T17:00:48.197Z,11.42
2023-03-26T17:06:02.203Z,11.21
2023-03-26T17:11:57.658Z,10.99
2023-03-26T17:17:36.897Z,10.79
2023-03-26T17:22:45.151Z,10.62
2023-03-26T17:28:28.642Z,10.43
2023-03-26T17:33:38.777Z,10.27
2023-03-26T17:38:40.605Z,10.13
2023-03-26T17:43:51.905Z,9.93
2023-03-26T17:49:06.832Z,9.84
2023-03-26T17:54:27.473Z,9.79
2023-03-26T17:59:29.387Z,9.70
2023-03-26T18:04:39.032Z,9.63
2023-03-26T18:10:18.723Z,9.59
2023-03-26T18:15:32.450Z,9.58
2023-03-26T18:20:37.160Z,9.60
2023-03-26T18:25:41.087Z,9.66
2023-03-26T18:30:48.425Z,9.72
2023-03-26T18:35:54.421Z,9.73
2023-03-26T18:40:56.540Z,9.69
2023-03-26T18:45:58.662Z,9.66
2023-03-26T18:51:05.032Z,9.58
2023-03-26T18:56:28.549Z,9.49
2023-03-26T19:01:34.181Z,9.41
2023-03-26T19:06:41.378Z,9.34
2023-03-26T19:11:45.316Z,9.28
2023-03-26T19:16:56.515Z,9.24
2023-03-26T19:21:59.647Z,9.21
2023-03-26T19:27:02.685Z,9.17
2023-03-26T19:32:29.488Z,9.11
2023-03-26T19:37:32.410Z,9.05
2023-03-26T19:42:43.100Z,8.98
2023-03-26T19:48:00.072Z,8.89
2023-03-26T19:53:22.456Z,8.79
2023-03-26T19:58:26.585Z,8.70
2023-03-26T20:03:36.954Z,8.63
2023-03-26T20:08:40.663Z,8.60
2023-03-26T20:13:42.528Z,8.59
2023-03-26T20:18:44.265Z,8.61
2023-03-26T20:23:46.138Z,8.61
2023-03-26T20:28:52.713Z,8.60
2023-03-26T20:33:56.536Z,8.53
2023-03-26T20:38:58.301Z,8.57
2023-03-26T20:44:00.085Z,8.61
2023-03-26T20:49:01.803Z,8.63
2023-03-26T20:54:05.274Z,8.61
2023-03-26T20:59:10.927Z,8.56
2023-03-26T21:04:14.608Z,8.45
2023-03-26T21:09:23.960Z,8.35
2023-03-26T21:14:41.188Z,8.30
2023-03-26T21:19:43.871Z,8.35
2023-03-26T21:25:03.506Z,8.40
2023-03-26T21:30:16.471Z,8.47
2023-03-26T21:35:19.105Z,8.50
2023-03-26T21:40:21.144Z,8.44
2023-03-26T21:45:43.918Z,8.36
2023-03-26T21:50:48.949Z,8.32
2023-03-26T21:56:17.548Z,8.30
2023-03-26T22:01:24.332Z,8.24
2023-03-26T22:06:37.102Z,8.09
2023-03-26T22:11:41.536Z,7.97
2023-03-26T22:16:43.307Z,7.91
2023-03-26T22:21:45.109Z,7.90
2023-03-26T22:26:47.643Z,7.90
2023-03-26T22:31:49.469Z,7.91
2023-03-26T22:36:52.233Z,7.93
2023-03-26T22:41:54.643Z,7.94
2023-03-26T22:46:57.031Z,7.92
2023-03-26T22:51:58.700Z,7.89
2023-03-26T22:57:00.713Z,7.82
2023-03-26T23:02:02.882Z,7.78
2023-03-26T23:07:05.905Z,7.72
2023-03-26T23:12:08.510Z,7.59
2023-03-26T23:17:14.740Z,7.46
2023-03-26T23:22:17.263Z,7.36
2023-03-26T23:27:22.467Z,7.29
2023-03-26T23:32:28.243Z,7.23
2023-03-26T23:37:35.026Z,7.21
2023-03-26T23:42:38.037Z,7.19
2023-03-26T23:47:42.894Z,7.19
2023-03-26T23:52:47.031Z,7.18
2023-03-26T23:57:48.987Z,7.19
